createdAt,value
2022-12-05T00:02:06.288Z,99.14
2022-12-05T00:04:33.260Z,99.14
2022-12-05T00:07:00.144Z,99.07
2022-12-05T00:09:27.259Z,98.93
2022-12-05T00:11:54.061Z,99.18
2022-12-05T00:14:20.888Z,98.79
2022-12-05T00:16:47.683Z,99.35
2022-12-05T00:19:15.997Z,99.58
2022-12-05T00:21:43.934Z,99.61
2022-12-05T00:24:14.547Z,99.41
2022-12-05T00:26:41.750Z,99.20
2022-12-05T00:29:08.396Z,99.61
2022-12-05T00:31:35.291Z,99.38
2022-12-05T00:34:03.174Z,99.24
2022-12-05T00:36:32.762Z,99.23
2022-12-05T00:39:01.648Z,99.63
2022-12-05T00:41:29.310Z,99.45
2022-12-05T00:43:58.199Z,98.72
2022-12-05T00:46:27.555Z,98.98
2022-12-05T00:49:01.982Z,99.00
2022-12-05T00:51:37.363Z,99.01
2022-12-05T00:54:11.985Z,99.26
2022-12-05T00:56:39.418Z,99.13
2022-12-05T00:59:07.692Z,99.22
2022-12-05T01:01:41.105Z,99.67
2022-12-05T01:04:18.928Z,99.57
2022-12-05T01:06:46.955Z,99.82
2022-12-05T01:09:16.564Z,100.00
2022-12-05T01:11:46.784Z,100.00
2022-12-05T01:14:21.272Z,100.00
2022-12-05T01:16:50.328Z,99.98
2022-12-05T01:19:23.378Z,100.00
2022-12-05T01:21:50.390Z,100.00
2022-12-05T01:24:20.358Z,100.00
2022-12-05T01:26:59.771Z,100.00
2022-12-05T01:29:32.061Z,100.00
2022-12-05T01:31:59.360Z,100.00
2022-12-05T01:34:32.908Z,100.00
2022-12-05T01:37:04.145Z,100.00
2022-12-05T01:39:33.609Z,100.00
2022-12-05T01:42:00.910Z,100.00
2022-12-05T01:44:33.510Z,100.00
2022-12-05T01:47:00.711Z,100.00
2022-12-05T01:49:37.726Z,100.00
2022-12-05T01:52:29.385Z,100.00
2022-12-05T01:55:15.841Z,100.00
2022-12-05T01:57:48.028Z,100.00
2022-12-05T02:00:18.651Z,100.00
2022-12-05T02:02:54.153Z,100.00
2022-12-05T02:05:33.653Z,100.00
2022-12-05T02:08:06.793Z,100.00
2022-12-05T02:10:52.725Z,100.00
2022-12-05T02:13:30.740Z,100.00
2022-12-05T02:16:35.085Z,100.00
2022-12-05T02:19:23.247Z,100.00
2022-12-05T02:22:03.716Z,100.00
2022-12-05T02:24:35.918Z,100.00
2022-12-05T02:27:21.545Z,100.00
2022-12-05T02:30:09.133Z,100.00
2022-12-05T02:32:58.428Z,100.00
2022-12-05T02:35:33.353Z,100.00
2022-12-05T02:38:16.887Z,100.00
2022-12-05T02:41:04.355Z,100.00
2022-12-05T02:43:39.443Z,100.00
2022-12-05T02:46:15.837Z,100.00
2022-12-05T02:48:46.655Z,100.00
2022-12-05T02:51:17.034Z,100.00
2022-12-05T02:53:45.799Z,100.00
2022-12-05T02:56:15.528Z,100.00
2022-12-05T02:58:54.911Z,100.00
2022-12-05T03:01:25.325Z,100.00
2022-12-05T03:03:52.357Z,100.00
2022-12-05T03:06:32.237Z,100.00
2022-12-05T03:09:16.761Z,100.00
2022-12-05T03:11:51.192Z,100.00
2022-12-05T03:14:26.380Z,100.00
2022-12-05T03:16:57.711Z,100.00
2022-12-05T03:19:29.189Z,100.00
2022-12-05T03:22:19.208Z,100.00
2022-12-05T03:24:46.161Z,100.00
2022-12-05T03:27:26.978Z,100.00
2022-12-05T03:30:02.288Z,100.00
2022-12-05T03:33:05.873Z,100.00
2022-12-05T03:35:51.056Z,100.00
2022-12-05T03:38:34.477Z,100.00
2022-12-05T03:41:17.626Z,100.00
2022-12-05T03:43:58.231Z,100.00
2022-12-05T03:46:30.152Z,100.00
2022-12-05T03:49:13.601Z,100.00
2022-12-05T03:51:47.486Z,100.00
2022-12-05T03:54:22.487Z,100.00
2022-12-05T03:57:13.609Z,100.00
2022-12-05T03:59:52.550Z,100.00
2022-12-05T04:02:28.696Z,100.00
2022-12-05T04:05:01.211Z,100.00
2022-12-05T04:07:32.975Z,100.00
2022-12-05T04:10:05.585Z,100.00
2022-12-05T04:12:34.624Z,100.00
2022-12-05T04:15:08.762Z,100.00
2022-12-05T04:17:58.384Z,100.00
2022-12-05T04:20:53.930Z,100.00
2022-12-05T04:23:21.031Z,100.00
2022-12-05T04:26:24.226Z,100.00
2022-12-05T04:29:04.423Z,100.00
2022-12-05T04:31:40.051Z,100.00
2022-12-05T04:34:13.802Z,100.00
2022-12-05T04:37:06.242Z,100.00
2022-12-05T04:39:40.702Z,100.00
2022-12-05T04:42:21.043Z,100.00
2022-12-05T04:44:55.249Z,100.00
2022-12-05T04:47:30.037Z,100.00
2022-12-05T04:50:01.013Z,100.00
2022-12-05T04:52:29.191Z,100.00
2022-12-05T04:55:12.728Z,100.00
2022-12-05T04:57:54.229Z,99.34
2022-12-05T05:00:21.454Z,99.42
2022-12-05T05:03:15.191Z,99.07
2022-12-05T05:05:48.905Z,99.02
2022-12-05T05:08:21.409Z,99.07
2022-12-05T05:11:19.244Z,99.53
2022-12-05T05:13:46.547Z,98.98
2022-12-05T05:16:23.625Z,98.41
2022-12-05T05:18:58.323Z,98.64
2022-12-05T05:21:31.098Z,98.27
2022-12-05T05:23:59.161Z,98.63
2022-12-05T05:26:31.132Z,98.70
2022-12-05T05:28:59.388Z,98.08
2022-12-05T05:31:31.825Z,98.74
2022-12-05T05:34:09.139Z,98.24
2022-12-05T05:36:48.205Z,97.94
2022-12-05T05:39:18.071Z,97.22
2022-12-05T05:41:48.716Z,97.49
2022-12-05T05:44:27.260Z,98.07
2022-12-05T05:47:00.739Z,97.25
2022-12-05T05:49:30.491Z,97.94
2022-12-05T05:52:06.080Z,97.71
2022-12-05T05:54:33.860Z,97.33
2022-12-05T05:57:07.134Z,97.00
2022-12-05T05:59:47.456Z,96.91
2022-12-05T06:02:17.101Z,95.97
2022-12-05T06:04:55.220Z,96.33
2022-12-05T06:07:28.502Z,97.11
2022-12-05T06:09:58.651Z,97.17
2022-12-05T06:12:27.649Z,96.91
2022-12-05T06:14:55.445Z,96.78
2022-12-05T06:17:23.149Z,95.66
2022-12-05T06:19:56.613Z,95.87
2022-12-05T06:22:26.767Z,96.28
2022-12-05T06:24:57.505Z,95.80
2022-12-05T06:27:36.010Z,95.42
2022-12-05T06:30:06.849Z,95.30
2022-12-05T06:32:43.964Z,95.46
2022-12-05T06:35:18.843Z,95.67
2022-12-05T06:37:55.406Z,94.79
2022-12-05T06:40:30.955Z,95.57
2022-12-05T06:42:59.128Z,95.69
2022-12-05T06:45:38.049Z,95.11
2022-12-05T06:48:12.698Z,94.97
2022-12-05T06:50:43.218Z,95.46
2022-12-05T06:53:10.902Z,95.72
2022-12-05T06:55:48.709Z,95.84
2022-12-05T06:58:21.437Z,95.83
2022-12-05T07:01:08.284Z,95.93
2022-12-05T07:03:44.262Z,95.90
2022-12-05T07:06:17.424Z,95.87
2022-12-05T07:08:55.524Z,96.62
2022-12-05T07:12:20.355Z,95.90
2022-12-05T07:14:50.590Z,95.88
2022-12-05T07:17:31.293Z,95.55
2022-12-05T07:20:01.903Z,96.23
2022-12-05T07:22:36.352Z,96.80
2022-12-05T07:25:09.859Z,96.51
2022-12-05T07:27:52.820Z,95.78
2022-12-05T07:30:25.007Z,95.48
2022-12-05T07:33:08.959Z,95.56
2022-12-05T07:35:36.626Z,94.36
2022-12-05T07:38:12.403Z,94.73
2022-12-05T07:40:43.877Z,94.72
2022-12-05T07:43:31.821Z,94.38
2022-12-05T07:46:24.365Z,95.46
2022-12-05T07:49:10.166Z,94.86
2022-12-05T07:54:56.181Z,94.08
2022-12-05T07:57:46.214Z,94.39
2022-12-05T08:00:51.180Z,94.35
2022-12-05T08:06:24.977Z,94.49
2022-12-05T08:11:52.938Z,92.62
2022-12-05T08:14:43.221Z,92.95
2022-12-05T08:23:32.676Z,92.62
2022-12-05T08:30:10.090Z,92.29
2022-12-05T08:42:56.065Z,91.83
2022-12-05T08:45:29.375Z,91.52
2022-12-05T08:58:26.784Z,90.18
2022-12-05T09:00:53.576Z,91.46
2022-12-05T09:03:20.038Z,91.15
2022-12-05T09:05:47.056Z,90.84
2022-12-05T09:08:13.518Z,91.04
2022-12-05T09:10:39.990Z,91.99
2022-12-05T09:13:06.476Z,91.58
2022-12-05T09:15:33.100Z,92.75
2022-12-05T09:17:59.597Z,92.09
2022-12-05T09:20:25.981Z,91.29
2022-12-05T09:22:52.796Z,89.99
2022-12-05T09:25:19.169Z,89.23
2022-12-05T09:27:46.489Z,89.69
2022-12-05T09:30:13.620Z,90.10
2022-12-05T09:32:40.071Z,90.15
2022-12-05T09:35:06.884Z,89.74
2022-12-05T09:37:40.527Z,89.61
2022-12-05T09:40:11.386Z,89.61
2022-12-05T09:42:49.684Z,89.99
2022-12-05T09:45:28.283Z,89.41
2022-12-05T09:47:59.986Z,90.54
2022-12-05T09:50:44.777Z,90.18
2022-12-05T09:53:27.440Z,90.50
2022-12-05T09:56:09.036Z,90.42
2022-12-05T09:58:48.228Z,90.96
2022-12-05T10:01:33.686Z,89.36
2022-12-05T10:04:20.911Z,89.84
2022-12-05T10:07:13.897Z,90.30
2022-12-05T10:09:58.590Z,90.32
2022-12-05T10:12:40.346Z,89.73
2022-12-05T10:15:38.192Z,89.85
2022-12-05T10:18:26.808Z,90.20
2022-12-05T10:21:08.362Z,90.31
2022-12-05T10:23:57.453Z,89.55
2022-12-05T10:26:35.819Z,89.44
2022-12-05T10:29:17.539Z,88.76
2022-12-05T10:31:47.008Z,89.75
2022-12-05T10:34:26.956Z,89.91
2022-12-05T10:37:15.713Z,89.44
2022-12-05T10:39:42.936Z,89.39
2022-12-05T10:42:16.445Z,89.07
2022-12-05T10:44:44.453Z,88.02
2022-12-05T10:47:11.911Z,88.36
2022-12-05T10:49:39.409Z,89.30
2022-12-05T10:52:06.366Z,88.69
2022-12-05T10:54:40.456Z,89.41
2022-12-05T10:57:22.261Z,89.78
2022-12-05T10:59:52.169Z,90.40
2022-12-05T11:02:22.848Z,90.66
2022-12-05T11:04:49.811Z,90.37
2022-12-05T11:07:32.031Z,90.45
2022-12-05T11:10:00.939Z,91.07
2022-12-05T11:12:30.036Z,91.14
2022-12-05T11:15:15.873Z,91.21
2022-12-05T11:17:42.878Z,91.60
2022-12-05T11:20:18.721Z,91.72
2022-12-05T11:22:51.101Z,91.74
2022-12-05T11:25:36.502Z,92.31
2022-12-05T11:28:18.183Z,92.74
2022-12-05T11:31:21.187Z,92.60
2022-12-05T11:34:22.831Z,93.08
2022-12-05T11:37:05.205Z,93.47
2022-12-05T11:39:31.858Z,93.49
2022-12-05T11:42:21.717Z,93.85
2022-12-05T11:44:54.282Z,93.27
2022-12-05T11:47:50.609Z,93.76
2022-12-05T11:51:02.895Z,93.69
2022-12-05T11:53:35.328Z,94.35
2022-12-05T11:56:20.736Z,94.59
2022-12-05T11:59:15.079Z,94.93
2022-12-05T12:02:12.305Z,95.18
2022-12-05T12:05:17.661Z,95.43
2022-12-05T12:07:53.367Z,95.25
2022-12-05T12:10:24.022Z,95.61
2022-12-05T12:13:13.417Z,95.65
2022-12-05T12:16:02.708Z,95.18
2022-12-05T12:19:03.162Z,94.67
2022-12-05T12:21:53.564Z,95.10
2022-12-05T12:24:22.905Z,94.89
2022-12-05T12:27:16.742Z,94.85
2022-12-05T12:30:04.196Z,94.41
2022-12-05T12:32:45.861Z,94.36
2022-12-05T12:35:30.017Z,94.29
2022-12-05T12:38:33.609Z,94.56
2022-12-05T12:41:14.065Z,94.16
2022-12-05T12:43:55.795Z,93.68
2022-12-05T12:46:49.882Z,94.15
2022-12-05T12:49:44.289Z,94.64
2022-12-05T12:52:18.766Z,94.14
2022-12-05T12:55:05.061Z,94.38
2022-12-05T12:58:09.367Z,94.72
2022-12-05T13:00:57.231Z,94.56
2022-12-05T13:03:41.381Z,94.21
2022-12-05T13:06:31.996Z,94.60
2022-12-05T13:09:03.268Z,94.58
2022-12-05T13:11:37.179Z,94.95
2022-12-05T13:14:11.558Z,94.75
2022-12-05T13:16:45.854Z,95.03
2022-12-05T13:19:42.769Z,95.25
2022-12-05T13:22:10.587Z,95.44
2022-12-05T13:24:37.162Z,94.81
2022-12-05T13:27:09.160Z,94.81
2022-12-05T13:29:41.893Z,94.58
2022-12-05T13:32:27.970Z,94.75
2022-12-05T13:34:56.937Z,94.32
2022-12-05T13:37:45.650Z,94.89
2022-12-05T13:40:45.934Z,94.55
2022-12-05T13:43:16.136Z,94.26
2022-12-05T13:46:11.813Z,94.22
2022-12-05T13:48:42.755Z,94.15
2022-12-05T13:51:24.176Z,93.97
2022-12-05T13:54:01.473Z,93.81
2022-12-05T13:56:56.065Z,93.59
2022-12-05T14:00:01.699Z,93.68
2022-12-05T14:02:43.679Z,93.51
2022-12-05T14:05:19.262Z,94.19
2022-12-05T14:07:47.984Z,93.56
2022-12-05T14:10:34.360Z,93.77
2022-12-05T14:13:14.379Z,93.85
2022-12-05T14:15:43.036Z,93.93
2022-12-05T14:18:15.319Z,94.10
2022-12-05T14:20:44.671Z,93.95
2022-12-05T14:23:23.086Z,94.77
2022-12-05T14:26:08.451Z,95.75
2022-12-05T14:28:43.866Z,95.71
2022-12-05T14:31:31.763Z,96.05
2022-12-05T14:34:16.914Z,96.41
2022-12-05T14:36:59.345Z,96.69
2022-12-05T14:39:46.030Z,96.94
2022-12-05T14:42:18.632Z,96.44
2022-12-05T14:44:51.115Z,96.76
2022-12-05T14:47:27.701Z,96.39
2022-12-05T14:50:01.789Z,95.55
2022-12-05T14:52:31.279Z,96.13
2022-12-05T14:55:06.976Z,95.89
2022-12-05T14:57:37.568Z,95.97
2022-12-05T15:00:07.385Z,96.40
2022-12-05T15:02:42.340Z,96.44
2022-12-05T15:05:22.729Z,96.20
2022-12-05T15:07:50.995Z,96.33
2022-12-05T15:10:25.105Z,96.43
2022-12-05T15:12:58.331Z,96.51
2022-12-05T15:15:39.913Z,96.76
2022-12-05T15:18:24.165Z,96.36
2022-12-05T15:21:04.601Z,96.61
2022-12-05T15:23:40.970Z,96.44
2022-12-05T15:26:45.527Z,96.45
2022-12-05T15:29:06.745Z,96.23
2022-12-05T15:31:44.104Z,96.41
2022-12-05T15:34:29.282Z,96.84
2022-12-05T15:37:16.442Z,96.40
2022-12-05T15:40:11.189Z,95.50
2022-12-05T15:42:42.573Z,95.39
2022-12-05T15:45:12.717Z,95.06
2022-12-05T15:48:00.239Z,94.60
2022-12-05T15:50:31.255Z,94.50
2022-12-05T15:53:17.972Z,94.34
2022-12-05T15:56:12.732Z,94.70
2022-12-05T15:58:42.497Z,94.45
2022-12-05T16:01:22.610Z,95.29
2022-12-05T16:04:07.821Z,95.10
2022-12-05T16:06:42.832Z,94.39
2022-12-05T16:09:17.475Z,95.01
2022-12-05T16:11:59.298Z,95.00
2022-12-05T16:17:20.502Z,94.85
2022-12-05T16:19:47.041Z,95.63
2022-12-05T16:22:13.425Z,94.72
2022-12-05T16:24:46.288Z,94.20
2022-12-05T16:27:21.214Z,94.57
2022-12-05T16:29:47.647Z,94.61
2022-12-05T16:32:25.417Z,93.81
2022-12-05T16:34:51.956Z,92.93
2022-12-05T16:37:30.014Z,93.48
2022-12-05T16:39:57.284Z,92.93
2022-12-05T16:42:28.044Z,93.30
2022-12-05T16:45:03.780Z,94.41
2022-12-05T16:47:54.683Z,94.73
2022-12-05T16:50:25.828Z,95.22
2022-12-05T16:53:01.128Z,94.53
2022-12-05T16:55:28.101Z,93.77
2022-12-05T16:57:54.518Z,93.76
2022-12-05T17:00:21.354Z,94.28
2022-12-05T17:02:47.741Z,94.59
2022-12-05T17:05:15.727Z,94.72
2022-12-05T17:07:42.256Z,94.77
2022-12-05T17:10:08.856Z,95.20
2022-12-05T17:12:35.616Z,94.99
2022-12-05T17:15:02.377Z,95.43
2022-12-05T17:17:28.916Z,95.46
2022-12-05T17:19:55.354Z,95.93
2022-12-05T17:22:22.655Z,95.66
2022-12-05T17:24:49.441Z,96.17
2022-12-05T17:27:15.879Z,95.07
2022-12-05T17:29:42.429Z,95.72
2022-12-05T17:32:10.461Z,96.44
2022-12-05T17:34:39.893Z,95.46
2022-12-05T17:37:06.501Z,96.42
2022-12-05T17:39:32.964Z,96.52
2022-12-05T17:41:59.428Z,96.78
2022-12-05T17:44:25.981Z,96.74
2022-12-05T17:46:52.420Z,97.75
2022-12-05T17:49:19.949Z,98.58
2022-12-05T17:52:20.018Z,98.17
2022-12-05T17:54:32.884Z,98.20
2022-12-05T17:56:59.276Z,97.60
2022-12-05T17:59:25.647Z,98.20
2022-12-05T18:01:52.053Z,98.00
2022-12-05T18:04:22.851Z,98.31
2022-12-05T18:06:49.819Z,98.47
2022-12-05T18:09:16.341Z,98.84
2022-12-05T18:11:42.744Z,99.53
2022-12-05T18:14:10.302Z,99.45
2022-12-05T18:16:36.748Z,99.52
2022-12-05T18:19:03.237Z,99.60
2022-12-05T18:21:30.019Z,99.30
2022-12-05T18:23:56.488Z,99.37
2022-12-05T18:26:22.872Z,99.84
2022-12-05T18:28:51.567Z,99.18
2022-12-05T18:31:18.186Z,99.93
2022-12-05T18:33:45.902Z,99.19
2022-12-05T18:36:18.805Z,99.69
2022-12-05T18:38:56.903Z,99.43
2022-12-05T18:41:25.572Z,99.89
2022-12-05T18:43:52.115Z,100.00
2022-12-05T18:46:19.048Z,99.96
2022-12-05T18:48:47.734Z,100.00
2022-12-05T18:51:16.089Z,100.00
2022-12-05T18:53:52.235Z,99.71
2022-12-05T18:56:25.686Z,100.00
2022-12-05T18:59:04.774Z,99.48
2022-12-05T19:01:36.445Z,98.79
2022-12-05T19:04:06.703Z,98.13
2022-12-05T19:06:36.276Z,98.29
2022-12-05T19:09:06.067Z,98.51
2022-12-05T19:11:33.781Z,97.65
2022-12-05T19:14:02.712Z,98.30
2022-12-05T19:16:32.007Z,98.17
2022-12-05T19:19:00.860Z,97.84
2022-12-05T19:21:29.935Z,97.79
2022-12-05T19:23:57.447Z,98.10
2022-12-05T19:26:24.790Z,97.88
2022-12-05T19:28:52.064Z,97.36
2022-12-05T19:31:21.673Z,97.57
2022-12-05T19:33:51.268Z,97.39
2022-12-05T19:36:20.871Z,97.55
2022-12-05T19:38:49.311Z,97.89
2022-12-05T19:41:19.713Z,98.35
2022-12-05T19:43:46.155Z,98.65
2022-12-05T19:46:19.222Z,98.54
2022-12-05T19:48:46.653Z,98.44
2022-12-05T19:51:16.479Z,98.04
2022-12-05T19:53:43.947Z,98.09
2022-12-05T19:56:16.727Z,98.43
2022-12-05T19:58:47.475Z,97.94
2022-12-05T20:01:25.024Z,98.40
2022-12-05T20:03:54.136Z,98.49
2022-12-05T20:06:21.358Z,98.51
2022-12-05T20:08:48.708Z,98.32
2022-12-05T20:11:18.120Z,98.42
2022-12-05T20:13:46.971Z,98.75
2022-12-05T20:16:16.799Z,98.84
2022-12-05T20:18:43.288Z,99.76
2022-12-05T20:21:14.773Z,99.35
2022-12-05T20:23:41.582Z,99.53
2022-12-05T20:26:12.540Z,99.92
2022-12-05T20:28:39.764Z,99.50
2022-12-05T20:31:09.421Z,99.26
2022-12-05T20:33:36.928Z,98.89
2022-12-05T20:36:06.057Z,98.70
2022-12-05T20:38:32.558Z,99.45
2022-12-05T20:41:08.364Z,99.03
2022-12-05T20:43:35.598Z,98.94
2022-12-05T20:46:07.804Z,99.21
2022-12-05T20:48:35.156Z,98.86
2022-12-05T20:51:22.904Z,99.04
2022-12-05T20:53:49.927Z,99.13
2022-12-05T20:56:18.767Z,98.32
2022-12-05T20:58:48.516Z,99.19
2022-12-05T21:01:16.176Z,99.44
2022-12-05T21:03:44.642Z,100.00
2022-12-05T21:06:16.796Z,100.00
2022-12-05T21:08:43.842Z,100.00
2022-12-05T21:11:11.927Z,99.95
2022-12-05T21:13:38.690Z,100.00
2022-12-05T21:16:08.472Z,99.89
2022-12-05T21:18:36.065Z,98.88
2022-12-05T21:21:05.253Z,98.81
2022-12-05T21:23:31.832Z,98.72
2022-12-05T21:26:04.663Z,99.17
2022-12-05T21:28:32.352Z,99.75
2022-12-05T21:31:14.404Z,99.90
2022-12-05T21:33:42.672Z,99.73
2022-12-05T21:36:09.642Z,100.00
2022-12-05T21:38:36.179Z,100.00
2022-12-05T21:41:04.659Z,100.00
2022-12-05T21:43:32.936Z,100.00
2022-12-05T21:45:59.655Z,100.00
2022-12-05T21:48:26.449Z,100.00
2022-12-05T21:50:52.903Z,100.00
2022-12-05T21:53:20.457Z,100.00
2022-12-05T21:55:47.426Z,100.00
2022-12-05T21:58:14.282Z,100.00
2022-12-05T22:00:41.932Z,99.87
2022-12-05T22:03:13.540Z,100.00
2022-12-05T22:05:40.815Z,100.00
2022-12-05T22:08:07.251Z,100.00
2022-12-05T22:10:34.888Z,100.00
2022-12-05T22:13:01.314Z,100.00
2022-12-05T22:15:28.597Z,100.00
2022-12-05T22:17:55.037Z,100.00
2022-12-05T22:20:21.560Z,100.00
2022-12-05T22:22:48.000Z,100.00
2022-12-05T22:25:14.994Z,100.00
2022-12-05T22:27:41.441Z,100.00
2022-12-05T22:30:08.660Z,100.00
2022-12-05T22:32:35.054Z,100.00
2022-12-05T22:35:04.042Z,100.00
2022-12-05T22:37:31.404Z,100.00
2022-12-05T22:39:58.300Z,100.00
2022-12-05T22:42:26.516Z,100.00
2022-12-05T22:44:52.952Z,100.00
2022-12-05T22:47:29.055Z,100.00
2022-12-05T22:49:56.149Z,100.00
2022-12-05T22:52:22.802Z,100.00
2022-12-05T22:54:49.370Z,100.00
2022-12-05T22:57:15.762Z,100.00
2022-12-05T22:59:42.125Z,100.00
2022-12-05T23:02:08.562Z,100.00
2022-12-05T23:04:55.360Z,100.00
2022-12-05T23:07:21.779Z,100.00
2022-12-05T23:09:48.172Z,100.00
2022-12-05T23:12:14.706Z,100.00
2022-12-05T23:14:41.185Z,100.00
2022-12-05T23:17:07.636Z,100.00
2022-12-05T23:19:34.069Z,100.00
2022-12-05T23:22:00.469Z,100.00
2022-12-05T23:24:26.949Z,100.00
2022-12-05T23:26:53.320Z,100.00
2022-12-05T23:29:20.046Z,100.00
2022-12-05T23:31:47.766Z,100.00
2022-12-05T23:34:14.681Z,100.00
2022-12-05T23:36:41.238Z,100.00
2022-12-05T23:39:07.708Z,100.00
2022-12-05T23:41:34.477Z,100.00
2022-12-05T23:44:00.898Z,100.00
2022-12-05T23:46:28.461Z,99.96
2022-12-05T23:48:55.874Z,99.64
2022-12-05T23:51:27.836Z,99.82
2022-12-05T23:53:56.763Z,99.57
2022-12-05T23:56:29.237Z,99.79
2022-12-05T23:58:56.704Z,99.69
